sensor_id;sensor_type;location;lat;lon;timestamp;P1;durP1;ratioP1;P2;durP2;ratioP2
3971;SDS011;2000;47.572;14.202;2023-03-16T00:00:44;3.10;;;2.20;;
3971;SDS011;2000;47.572;14.202;2023-03-16T00:03:11;3.37;;;2.33;;
3971;SDS011;2000;47.572;14.202;2023-03-16T00:05:45;3.40;;;2.40;;
3971;SDS011;2000;47.572;14.202;2023-03-16T00:08:13;3.70;;;2.70;;
3971;SDS011;2000;47.572;14.202;2023-03-16T00:10:40;1.90;;;1.43;;
3971;SDS011;2000;47.572;14.202;2023-03-16T00:13:15;1.50;;;1.40;;
3971;SDS011;2000;47.572;14.202;2023-03-16T00:15:51;2.10;;;1.20;;
3971;SDS011;2000;47.572;14.202;2023-03-16T00:18:20;3.00;;;1.33;;
3971;SDS011;2000;47.572;14.202;2023-03-16T00:20:51;1.47;;;1.03;;
3971;SDS011;2000;47.572;14.202;2023-03-16T00:23:19;2.00;;;1.30;;
3971;SDS011;2000;47.572;14.202;2023-03-16T00:25:56;3.30;;;2.00;;
3971;SDS011;2000;47.572;14.202;2023-03-16T00:28:24;2.23;;;2.03;;
3971;SDS011;2000;47.572;14.202;2023-03-16T00:30:53;1.47;;;1.37;;
3971;SDS011;2000;47.572;14.202;2023-03-16T00:33:24;1.63;;;1.53;;
3971;SDS011;2000;47.572;14.202;2023-03-16T00:35:52;1.33;;;1.10;;
3971;SDS011;2000;47.572;14.202;2023-03-16T00:38:30;1.80;;;1.40;;
3971;SDS011;2000;47.572;14.202;2023-03-16T00:41:00;1.40;;;1.40;;
3971;SDS011;2000;47.572;14.202;2023-03-16T00:43:29;3.53;;;1.33;;
3971;SDS011;2000;47.572;14.202;2023-03-16T00:45:58;2.03;;;1.80;;
3971;SDS011;2000;47.572;14.202;2023-03-16T00:48:26;3.53;;;1.60;;
3971;SDS011;2000;47.572;14.202;2023-03-16T00:50:53;2.10;;;1.90;;
3971;SDS011;2000;47.572;14.202;2023-03-16T00:53:20;1.57;;;1.47;;
3971;SDS011;2000;47.572;14.202;2023-03-16T00:55:47;1.50;;;1.23;;
3971;SDS011;2000;47.572;14.202;2023-03-16T00:58:14;1.80;;;1.20;;
3971;SDS011;2000;47.572;14.202;2023-03-16T01:00:41;1.37;;;1.30;;
3971;SDS011;2000;47.572;14.202;2023-03-16T01:03:08;1.43;;;1.30;;
3971;SDS011;2000;47.572;14.202;2023-03-16T01:05:38;1.63;;;1.53;;
3971;SDS011;2000;47.572;14.202;2023-03-16T01:08:06;3.30;;;2.17;;
3971;SDS011;2000;47.572;14.202;2023-03-16T01:10:34;4.63;;;1.50;;
3971;SDS011;2000;47.572;14.202;2023-03-16T01:13:01;1.73;;;1.53;;
3971;SDS011;2000;47.572;14.202;2023-03-16T01:15:31;1.77;;;1.67;;
3971;SDS011;2000;47.572;14.202;2023-03-16T01:18:00;4.63;;;2.10;;
3971;SDS011;2000;47.572;14.202;2023-03-16T01:20:27;1.90;;;1.50;;
3971;SDS011;2000;47.572;14.202;2023-03-16T01:22:54;2.80;;;1.60;;
3971;SDS011;2000;47.572;14.202;2023-03-16T01:25:21;1.53;;;1.43;;
3971;SDS011;2000;47.572;14.202;2023-03-16T01:27:49;2.60;;;1.30;;
3971;SDS011;2000;47.572;14.202;2023-03-16T01:30:16;2.63;;;1.43;;
3971;SDS011;2000;47.572;14.202;2023-03-16T01:32:43;6.37;;;1.53;;
3971;SDS011;2000;47.572;14.202;2023-03-16T01:35:09;2.30;;;2.10;;
3971;SDS011;2000;47.572;14.202;2023-03-16T01:37:37;1.47;;;1.37;;
3971;SDS011;2000;47.572;14.202;2023-03-16T01:40:04;2.00;;;1.53;;
3971;SDS011;2000;47.572;14.202;2023-03-16T01:42:34;2.20;;;1.80;;
3971;SDS011;2000;47.572;14.202;2023-03-16T01:48:13;3.30;;;1.60;;
3971;SDS011;2000;47.572;14.202;2023-03-16T01:50:40;1.73;;;1.63;;
3971;SDS011;2000;47.572;14.202;2023-03-16T01:53:08;0.90;;;0.90;;
3971;SDS011;2000;47.572;14.202;2023-03-16T01:55:35;1.73;;;1.63;;
3971;SDS011;2000;47.572;14.202;2023-03-16T01:58:02;8.07;;;1.60;;
3971;SDS011;2000;47.572;14.202;2023-03-16T02:00:29;0.90;;;0.90;;
3971;SDS011;2000;47.572;14.202;2023-03-16T02:02:59;1.93;;;1.67;;
3971;SDS011;2000;47.572;14.202;2023-03-16T02:08:00;1.60;;;1.30;;
3971;SDS011;2000;47.572;14.202;2023-03-16T02:10:27;2.00;;;1.80;;
3971;SDS011;2000;47.572;14.202;2023-03-16T02:12:55;2.10;;;1.90;;
3971;SDS011;2000;47.572;14.202;2023-03-16T02:15:23;1.70;;;1.60;;
3971;SDS011;2000;47.572;14.202;2023-03-16T02:17:50;2.57;;;2.13;;
3971;SDS011;2000;47.572;14.202;2023-03-16T02:22:56;1.60;;;1.50;;
3971;SDS011;2000;47.572;14.202;2023-03-16T02:25:47;1.67;;;1.50;;
3971;SDS011;2000;47.572;14.202;2023-03-16T02:31:03;1.60;;;1.03;;
3971;SDS011;2000;47.572;14.202;2023-03-16T02:33:31;1.63;;;1.53;;
3971;SDS011;2000;47.572;14.202;2023-03-16T02:35:58;1.43;;;1.33;;
3971;SDS011;2000;47.572;14.202;2023-03-16T02:38:25;1.73;;;1.53;;
3971;SDS011;2000;47.572;14.202;2023-03-16T02:41:25;2.53;;;1.60;;
3971;SDS011;2000;47.572;14.202;2023-03-16T02:43:47;1.30;;;1.20;;
3971;SDS011;2000;47.572;14.202;2023-03-16T02:46:30;1.97;;;1.20;;
3971;SDS011;2000;47.572;14.202;2023-03-16T02:49:07;1.77;;;1.20;;
3971;SDS011;2000;47.572;14.202;2023-03-16T02:51:51;1.40;;;1.30;;
3971;SDS011;2000;47.572;14.202;2023-03-16T02:54:18;1.73;;;1.33;;
3971;SDS011;2000;47.572;14.202;2023-03-16T02:56:45;3.17;;;1.30;;
3971;SDS011;2000;47.572;14.202;2023-03-16T02:59:12;1.07;;;0.97;;
3971;SDS011;2000;47.572;14.202;2023-03-16T03:01:39;1.20;;;1.10;;
3971;SDS011;2000;47.572;14.202;2023-03-16T03:04:06;1.60;;;1.40;;
3971;SDS011;2000;47.572;14.202;2023-03-16T03:06:33;1.73;;;0.90;;
3971;SDS011;2000;47.572;14.202;2023-03-16T03:09:00;0.93;;;0.90;;
3971;SDS011;2000;47.572;14.202;2023-03-16T03:11:27;1.00;;;1.00;;
3971;SDS011;2000;47.572;14.202;2023-03-16T03:13:54;1.77;;;1.20;;
3971;SDS011;2000;47.572;14.202;2023-03-16T03:16:21;1.03;;;1.03;;
3971;SDS011;2000;47.572;14.202;2023-03-16T03:18:48;1.97;;;1.13;;
3971;SDS011;2000;47.572;14.202;2023-03-16T03:21:15;9.60;;;1.30;;
3971;SDS011;2000;47.572;14.202;2023-03-16T03:23:42;1.43;;;1.07;;
3971;SDS011;2000;47.572;14.202;2023-03-16T03:26:12;1.17;;;1.07;;
3971;SDS011;2000;47.572;14.202;2023-03-16T03:28:40;1.40;;;1.30;;
3971;SDS011;2000;47.572;14.202;2023-03-16T03:31:14;1.40;;;1.30;;
3971;SDS011;2000;47.572;14.202;2023-03-16T03:33:43;1.27;;;1.17;;
3971;SDS011;2000;47.572;14.202;2023-03-16T03:36:10;1.20;;;1.10;;
3971;SDS011;2000;47.572;14.202;2023-03-16T03:38:37;1.20;;;1.10;;
3971;SDS011;2000;47.572;14.202;2023-03-16T03:41:04;0.70;;;0.70;;
3971;SDS011;2000;47.572;14.202;2023-03-16T03:43:33;1.00;;;0.80;;
3971;SDS011;2000;47.572;14.202;2023-03-16T03:46:00;1.70;;;1.30;;
3971;SDS011;2000;47.572;14.202;2023-03-16T03:48:28;3.13;;;1.10;;
3971;SDS011;2000;47.572;14.202;2023-03-16T03:50:54;0.80;;;0.70;;
3971;SDS011;2000;47.572;14.202;2023-03-16T03:53:21;1.50;;;1.40;;
3971;SDS011;2000;47.572;14.202;2023-03-16T03:55:48;0.93;;;0.93;;
3971;SDS011;2000;47.572;14.202;2023-03-16T03:58:15;0.90;;;0.90;;
3971;SDS011;2000;47.572;14.202;2023-03-16T04:00:42;0.70;;;0.67;;
3971;SDS011;2000;47.572;14.202;2023-03-16T04:03:09;1.23;;;0.80;;
3971;SDS011;2000;47.572;14.202;2023-03-16T04:05:36;1.37;;;0.80;;
3971;SDS011;2000;47.572;14.202;2023-03-16T04:08:03;0.70;;;0.70;;
3971;SDS011;2000;47.572;14.202;2023-03-16T04:10:30;1.40;;;1.07;;
3971;SDS011;2000;47.572;14.202;2023-03-16T04:12:57;1.17;;;1.07;;
3971;SDS011;2000;47.572;14.202;2023-03-16T04:15:24;1.00;;;1.00;;
3971;SDS011;2000;47.572;14.202;2023-03-16T04:17:51;1.10;;;0.93;;
3971;SDS011;2000;47.572;14.202;2023-03-16T04:20:18;1.00;;;1.00;;
3971;SDS011;2000;47.572;14.202;2023-03-16T04:22:46;2.80;;;0.80;;
3971;SDS011;2000;47.572;14.202;2023-03-16T04:25:14;1.67;;;1.57;;
3971;SDS011;2000;47.572;14.202;2023-03-16T04:27:42;1.80;;;1.70;;
3971;SDS011;2000;47.572;14.202;2023-03-16T04:30:10;1.10;;;1.10;;
3971;SDS011;2000;47.572;14.202;2023-03-16T04:32:40;1.40;;;1.30;;
3971;SDS011;2000;47.572;14.202;2023-03-16T04:35:08;2.40;;;1.50;;
3971;SDS011;2000;47.572;14.202;2023-03-16T04:37:35;2.60;;;1.30;;
3971;SDS011;2000;47.572;14.202;2023-03-16T04:40:02;0.93;;;0.93;;
3971;SDS011;2000;47.572;14.202;2023-03-16T04:42:37;1.43;;;1.13;;
3971;SDS011;2000;47.572;14.202;2023-03-16T04:45:03;1.30;;;1.20;;
3971;SDS011;2000;47.572;14.202;2023-03-16T04:47:30;1.23;;;1.20;;
3971;SDS011;2000;47.572;14.202;2023-03-16T04:50:00;0.90;;;0.90;;
3971;SDS011;2000;47.572;14.202;2023-03-16T04:52:28;2.50;;;1.47;;
3971;SDS011;2000;47.572;14.202;2023-03-16T04:54:55;3.83;;;1.90;;
3971;SDS011;2000;47.572;14.202;2023-03-16T04:57:21;5.60;;;3.47;;
3971;SDS011;2000;47.572;14.202;2023-03-16T04:59:48;4.77;;;4.30;;
3971;SDS011;2000;47.572;14.202;2023-03-16T05:02:15;5.17;;;4.77;;
3971;SDS011;2000;47.572;14.202;2023-03-16T05:04:42;6.27;;;3.00;;
3971;SDS011;2000;47.572;14.202;2023-03-16T05:07:09;1.60;;;1.50;;
3971;SDS011;2000;47.572;14.202;2023-03-16T05:09:36;2.93;;;1.80;;
3971;SDS011;2000;47.572;14.202;2023-03-16T05:12:03;1.70;;;1.43;;
3971;SDS011;2000;47.572;14.202;2023-03-16T05:14:30;0.97;;;0.70;;
3971;SDS011;2000;47.572;14.202;2023-03-16T05:16:58;1.80;;;0.80;;
3971;SDS011;2000;47.572;14.202;2023-03-16T05:19:24;1.10;;;1.00;;
3971;SDS011;2000;47.572;14.202;2023-03-16T05:21:51;2.57;;;1.10;;
3971;SDS011;2000;47.572;14.202;2023-03-16T05:24:18;2.37;;;1.03;;
3971;SDS011;2000;47.572;14.202;2023-03-16T05:26:45;0.70;;;0.70;;
3971;SDS011;2000;47.572;14.202;2023-03-16T05:29:11;3.03;;;0.70;;
3971;SDS011;2000;47.572;14.202;2023-03-16T05:31:38;3.33;;;1.20;;
3971;SDS011;2000;47.572;14.202;2023-03-16T05:34:04;1.30;;;1.00;;
3971;SDS011;2000;47.572;14.202;2023-03-16T05:36:31;1.73;;;0.97;;
3971;SDS011;2000;47.572;14.202;2023-03-16T05:39:01;4.70;;;1.33;;
3971;SDS011;2000;47.572;14.202;2023-03-16T05:41:27;0.87;;;0.87;;
3971;SDS011;2000;47.572;14.202;2023-03-16T05:43:55;4.60;;;1.80;;
3971;SDS011;2000;47.572;14.202;2023-03-16T05:46:22;3.97;;;1.37;;
3971;SDS011;2000;47.572;14.202;2023-03-16T05:48:49;2.30;;;1.60;;
3971;SDS011;2000;47.572;14.202;2023-03-16T05:51:15;4.20;;;1.90;;
3971;SDS011;2000;47.572;14.202;2023-03-16T05:53:42;4.47;;;1.87;;
3971;SDS011;2000;47.572;14.202;2023-03-16T05:56:12;3.20;;;2.73;;
3971;SDS011;2000;47.572;14.202;2023-03-16T05:58:38;3.37;;;1.97;;
3971;SDS011;2000;47.572;14.202;2023-03-16T06:01:05;0.80;;;0.70;;
3971;SDS011;2000;47.572;14.202;2023-03-16T06:03:34;1.57;;;0.60;;
3971;SDS011;2000;47.572;14.202;2023-03-16T06:06:02;2.30;;;0.70;;
3971;SDS011;2000;47.572;14.202;2023-03-16T06:08:29;1.03;;;0.87;;
3971;SDS011;2000;47.572;14.202;2023-03-16T06:10:56;0.87;;;0.83;;
3971;SDS011;2000;47.572;14.202;2023-03-16T06:13:23;2.23;;;1.13;;
3971;SDS011;2000;47.572;14.202;2023-03-16T06:15:50;2.23;;;0.87;;
3971;SDS011;2000;47.572;14.202;2023-03-16T06:18:16;2.23;;;1.20;;
3971;SDS011;2000;47.572;14.202;2023-03-16T06:20:43;1.13;;;1.10;;
3971;SDS011;2000;47.572;14.202;2023-03-16T06:23:12;1.07;;;1.03;;
3971;SDS011;2000;47.572;14.202;2023-03-16T06:25:39;1.53;;;0.90;;
3971;SDS011;2000;47.572;14.202;2023-03-16T06:28:06;1.27;;;1.00;;
3971;SDS011;2000;47.572;14.202;2023-03-16T06:30:33;1.43;;;1.33;;
3971;SDS011;2000;47.572;14.202;2023-03-16T06:33:00;1.47;;;0.90;;
3971;SDS011;2000;47.572;14.202;2023-03-16T06:35:27;1.57;;;1.40;;
3971;SDS011;2000;47.572;14.202;2023-03-16T06:37:54;1.63;;;1.10;;
3971;SDS011;2000;47.572;14.202;2023-03-16T06:40:21;3.47;;;1.30;;
3971;SDS011;2000;47.572;14.202;2023-03-16T06:42:47;4.93;;;2.03;;
3971;SDS011;2000;47.572;14.202;2023-03-16T06:45:16;2.50;;;1.93;;
3971;SDS011;2000;47.572;14.202;2023-03-16T06:47:43;2.50;;;1.20;;
3971;SDS011;2000;47.572;14.202;2023-03-16T06:50:10;2.60;;;1.37;;
3971;SDS011;2000;47.572;14.202;2023-03-16T06:52:37;3.40;;;1.40;;
3971;SDS011;2000;47.572;14.202;2023-03-16T06:55:04;1.70;;;1.13;;
3971;SDS011;2000;47.572;14.202;2023-03-16T06:57:31;1.77;;;1.50;;
3971;SDS011;2000;47.572;14.202;2023-03-16T06:59:58;4.00;;;1.27;;
3971;SDS011;2000;47.572;14.202;2023-03-16T07:02:25;3.60;;;2.10;;
3971;SDS011;2000;47.572;14.202;2023-03-16T07:04:52;3.70;;;1.73;;
3971;SDS011;2000;47.572;14.202;2023-03-16T07:07:19;3.80;;;1.27;;
3971;SDS011;2000;47.572;14.202;2023-03-16T07:09:47;1.47;;;1.10;;
3971;SDS011;2000;47.572;14.202;2023-03-16T07:12:13;4.77;;;1.30;;
3971;SDS011;2000;47.572;14.202;2023-03-16T07:14:40;1.57;;;1.13;;
3971;SDS011;2000;47.572;14.202;2023-03-16T07:17:07;2.60;;;1.70;;
3971;SDS011;2000;47.572;14.202;2023-03-16T07:19:34;2.30;;;1.63;;
3971;SDS011;2000;47.572;14.202;2023-03-16T07:22:01;2.50;;;1.93;;
3971;SDS011;2000;47.572;14.202;2023-03-16T07:24:28;1.90;;;1.27;;
3971;SDS011;2000;47.572;14.202;2023-03-16T07:26:56;3.03;;;1.60;;
3971;SDS011;2000;47.572;14.202;2023-03-16T07:29:22;5.70;;;2.80;;
3971;SDS011;2000;47.572;14.202;2023-03-16T07:31:49;3.30;;;2.70;;
3971;SDS011;2000;47.572;14.202;2023-03-16T07:34:16;15.57;;;6.27;;
3971;SDS011;2000;47.572;14.202;2023-03-16T07:36:43;13.33;;;8.40;;
3971;SDS011;2000;47.572;14.202;2023-03-16T07:39:10;13.90;;;6.17;;
3971;SDS011;2000;47.572;14.202;2023-03-16T07:41:39;7.63;;;4.40;;
3971;SDS011;2000;47.572;14.202;2023-03-16T07:44:07;10.00;;;5.10;;
3971;SDS011;2000;47.572;14.202;2023-03-16T07:46:33;5.70;;;4.27;;
3971;SDS011;2000;47.572;14.202;2023-03-16T07:49:00;6.77;;;4.30;;
3971;SDS011;2000;47.572;14.202;2023-03-16T07:51:27;9.43;;;4.33;;
3971;SDS011;2000;47.572;14.202;2023-03-16T07:53:54;5.37;;;4.53;;
3971;SDS011;2000;47.572;14.202;2023-03-16T07:56:21;8.20;;;3.90;;
3971;SDS011;2000;47.572;14.202;2023-03-16T07:58:48;18.03;;;3.80;;
3971;SDS011;2000;47.572;14.202;2023-03-16T08:01:14;3.83;;;3.17;;
3971;SDS011;2000;47.572;14.202;2023-03-16T08:03:41;4.57;;;3.20;;
3971;SDS011;2000;47.572;14.202;2023-03-16T08:06:09;3.80;;;3.40;;
3971;SDS011;2000;47.572;14.202;2023-03-16T08:08:37;3.10;;;2.80;;
3971;SDS011;2000;47.572;14.202;2023-03-16T08:11:04;14.83;;;3.30;;
3971;SDS011;2000;47.572;14.202;2023-03-16T08:13:31;13.13;;;2.77;;
3971;SDS011;2000;47.572;14.202;2023-03-16T08:15:58;4.43;;;3.03;;
3971;SDS011;2000;47.572;14.202;2023-03-16T08:18:28;11.03;;;2.97;;
3971;SDS011;2000;47.572;14.202;2023-03-16T08:20:55;2.93;;;2.30;;
3971;SDS011;2000;47.572;14.202;2023-03-16T08:23:23;2.67;;;2.47;;
3971;SDS011;2000;47.572;14.202;2023-03-16T08:25:52;3.77;;;3.47;;
3971;SDS011;2000;47.572;14.202;2023-03-16T08:28:19;6.10;;;3.30;;
3971;SDS011;2000;47.572;14.202;2023-03-16T08:30:51;7.10;;;3.60;;
3971;SDS011;2000;47.572;14.202;2023-03-16T08:33:19;7.27;;;3.40;;
3971;SDS011;2000;47.572;14.202;2023-03-16T08:35:48;4.40;;;3.40;;
3971;SDS011;2000;47.572;14.202;2023-03-16T08:38:16;6.37;;;3.30;;
3971;SDS011;2000;47.572;14.202;2023-03-16T08:40:44;9.07;;;3.53;;
3971;SDS011;2000;47.572;14.202;2023-03-16T08:43:14;4.17;;;3.73;;
3971;SDS011;2000;47.572;14.202;2023-03-16T08:45:45;8.53;;;3.90;;
3971;SDS011;2000;47.572;14.202;2023-03-16T08:48:13;11.27;;;3.57;;
3971;SDS011;2000;47.572;14.202;2023-03-16T08:50:40;24.43;;;3.93;;
3971;SDS011;2000;47.572;14.202;2023-03-16T08:53:09;4.47;;;3.20;;
3971;SDS011;2000;47.572;14.202;2023-03-16T08:55:37;7.00;;;2.97;;
3971;SDS011;2000;47.572;14.202;2023-03-16T08:58:03;4.63;;;2.93;;
3971;SDS011;2000;47.572;14.202;2023-03-16T09:00:30;3.97;;;3.13;;
3971;SDS011;2000;47.572;14.202;2023-03-16T09:02:57;4.37;;;3.30;;
3971;SDS011;2000;47.572;14.202;2023-03-16T09:05:24;3.87;;;3.20;;
3971;SDS011;2000;47.572;14.202;2023-03-16T09:07:51;2.60;;;2.03;;
3971;SDS011;2000;47.572;14.202;2023-03-16T09:10:20;2.30;;;2.10;;
3971;SDS011;2000;47.572;14.202;2023-03-16T09:12:48;2.60;;;2.10;;
3971;SDS011;2000;47.572;14.202;2023-03-16T09:15:15;2.97;;;2.30;;
3971;SDS011;2000;47.572;14.202;2023-03-16T09:17:43;11.13;;;3.00;;
3971;SDS011;2000;47.572;14.202;2023-03-16T09:20:12;2.40;;;2.20;;
3971;SDS011;2000;47.572;14.202;2023-03-16T09:22:54;7.83;;;3.60;;
3971;SDS011;2000;47.572;14.202;2023-03-16T09:25:22;3.77;;;2.80;;
3971;SDS011;2000;47.572;14.202;2023-03-16T09:27:50;3.30;;;3.00;;
3971;SDS011;2000;47.572;14.202;2023-03-16T09:30:18;2.83;;;2.60;;
3971;SDS011;2000;47.572;14.202;2023-03-16T09:32:45;3.23;;;2.00;;
3971;SDS011;2000;47.572;14.202;2023-03-16T09:35:14;1.63;;;1.50;;
3971;SDS011;2000;47.572;14.202;2023-03-16T09:37:41;3.73;;;1.90;;
3971;SDS011;2000;47.572;14.202;2023-03-16T09:40:28;1.70;;;1.40;;
3971;SDS011;2000;47.572;14.202;2023-03-16T09:45:54;1.37;;;0.90;;
3971;SDS011;2000;47.572;14.202;2023-03-16T09:48:27;2.00;;;0.90;;
3971;SDS011;2000;47.572;14.202;2023-03-16T09:50:58;1.03;;;0.93;;
3971;SDS011;2000;47.572;14.202;2023-03-16T09:53:31;1.20;;;1.10;;
3971;SDS011;2000;47.572;14.202;2023-03-16T09:58:29;1.10;;;0.90;;
3971;SDS011;2000;47.572;14.202;2023-03-16T10:01:04;1.63;;;1.23;;
3971;SDS011;2000;47.572;14.202;2023-03-16T10:03:40;1.23;;;1.13;;
3971;SDS011;2000;47.572;14.202;2023-03-16T10:06:30;1.40;;;0.87;;
3971;SDS011;2000;47.572;14.202;2023-03-16T10:09:35;3.30;;;1.37;;
3971;SDS011;2000;47.572;14.202;2023-03-16T10:11:54;8.43;;;1.70;;
3971;SDS011;2000;47.572;14.202;2023-03-16T10:14:29;4.50;;;1.40;;
3971;SDS011;2000;47.572;14.202;2023-03-16T10:20:04;3.03;;;2.20;;
3971;SDS011;2000;47.572;14.202;2023-03-16T10:22:37;1.10;;;1.10;;
3971;SDS011;2000;47.572;14.202;2023-03-16T10:27:40;2.00;;;1.50;;
3971;SDS011;2000;47.572;14.202;2023-03-16T10:33:00;1.17;;;0.97;;
3971;SDS011;2000;47.572;14.202;2023-03-16T10:35:50;1.50;;;1.40;;
3971;SDS011;2000;47.572;14.202;2023-03-16T10:43:49;1.03;;;0.90;;
3971;SDS011;2000;47.572;14.202;2023-03-16T10:46:17;1.13;;;0.97;;
3971;SDS011;2000;47.572;14.202;2023-03-16T10:48:51;1.47;;;1.20;;
3971;SDS011;2000;47.572;14.202;2023-03-16T10:51:32;0.77;;;0.77;;
3971;SDS011;2000;47.572;14.202;2023-03-16T10:56:36;1.03;;;0.90;;
3971;SDS011;2000;47.572;14.202;2023-03-16T11:02:01;1.40;;;1.07;;
3971;SDS011;2000;47.572;14.202;2023-03-16T11:04:33;1.90;;;1.47;;
3971;SDS011;2000;47.572;14.202;2023-03-16T11:07:01;0.73;;;0.73;;
3971;SDS011;2000;47.572;14.202;2023-03-16T11:09:31;0.67;;;0.67;;
3971;SDS011;2000;47.572;14.202;2023-03-16T11:12:00;0.80;;;0.80;;
3971;SDS011;2000;47.572;14.202;2023-03-16T11:14:41;1.70;;;0.60;;
3971;SDS011;2000;47.572;14.202;2023-03-16T11:17:11;1.60;;;1.00;;
3971;SDS011;2000;47.572;14.202;2023-03-16T11:19:51;1.73;;;0.80;;
3971;SDS011;2000;47.572;14.202;2023-03-16T11:22:23;1.93;;;1.23;;
3971;SDS011;2000;47.572;14.202;2023-03-16T11:27:36;8.93;;;1.20;;
3971;SDS011;2000;47.572;14.202;2023-03-16T11:30:10;3.00;;;1.47;;
3971;SDS011;2000;47.572;14.202;2023-03-16T11:32:42;3.43;;;0.97;;
3971;SDS011;2000;47.572;14.202;2023-03-16T11:35:18;0.77;;;0.77;;
3971;SDS011;2000;47.572;14.202;2023-03-16T11:37:49;3.70;;;1.30;;
3971;SDS011;2000;47.572;14.202;2023-03-16T11:43:17;2.70;;;1.30;;
3971;SDS011;2000;47.572;14.202;2023-03-16T12:05:42;0.83;;;0.83;;
3971;SDS011;2000;47.572;14.202;2023-03-16T12:14:22;8.03;;;0.50;;
3971;SDS011;2000;47.572;14.202;2023-03-16T12:16:56;0.70;;;0.53;;
3971;SDS011;2000;47.572;14.202;2023-03-16T12:19:40;1.27;;;0.63;;
3971;SDS011;2000;47.572;14.202;2023-03-16T12:22:18;1.17;;;0.57;;
3971;SDS011;2000;47.572;14.202;2023-03-16T12:24:48;1.10;;;0.70;;
3971;SDS011;2000;47.572;14.202;2023-03-16T12:27:20;1.10;;;0.60;;
3971;SDS011;2000;47.572;14.202;2023-03-16T12:32:56;1.80;;;0.67;;
3971;SDS011;2000;47.572;14.202;2023-03-16T12:46:03;1.47;;;0.53;;
3971;SDS011;2000;47.572;14.202;2023-03-16T12:48:37;1.50;;;0.60;;
3971;SDS011;2000;47.572;14.202;2023-03-16T12:51:07;0.60;;;0.40;;
3971;SDS011;2000;47.572;14.202;2023-03-16T12:53:39;0.63;;;0.50;;
3971;SDS011;2000;47.572;14.202;2023-03-16T12:56:08;0.50;;;0.50;;
3971;SDS011;2000;47.572;14.202;2023-03-16T12:58:42;1.43;;;0.40;;
3971;SDS011;2000;47.572;14.202;2023-03-16T13:01:11;0.83;;;0.70;;
3971;SDS011;2000;47.572;14.202;2023-03-16T13:03:39;0.90;;;0.60;;
3971;SDS011;2000;47.572;14.202;2023-03-16T13:06:07;0.77;;;0.63;;
3971;SDS011;2000;47.572;14.202;2023-03-16T13:08:45;5.17;;;1.17;;
3971;SDS011;2000;47.572;14.202;2023-03-16T13:11:14;1.33;;;0.57;;
3971;SDS011;2000;47.572;14.202;2023-03-16T13:16:28;3.10;;;0.87;;
3971;SDS011;2000;47.572;14.202;2023-03-16T13:18:58;2.73;;;0.83;;
3971;SDS011;2000;47.572;14.202;2023-03-16T13:21:36;0.53;;;0.53;;
3971;SDS011;2000;47.572;14.202;2023-03-16T13:24:12;0.87;;;0.60;;
3971;SDS011;2000;47.572;14.202;2023-03-16T13:26:50;2.33;;;0.67;;
3971;SDS011;2000;47.572;14.202;2023-03-16T13:29:20;1.60;;;0.40;;
3971;SDS011;2000;47.572;14.202;2023-03-16T13:31:48;1.70;;;0.77;;
3971;SDS011;2000;47.572;14.202;2023-03-16T13:36:59;2.10;;;1.57;;
3971;SDS011;2000;47.572;14.202;2023-03-16T13:39:28;1.00;;;0.70;;
3971;SDS011;2000;47.572;14.202;2023-03-16T13:42:02;10.80;;;0.70;;
3971;SDS011;2000;47.572;14.202;2023-03-16T13:44:38;0.97;;;0.50;;
3971;SDS011;2000;47.572;14.202;2023-03-16T13:47:12;0.43;;;0.43;;
3971;SDS011;2000;47.572;14.202;2023-03-16T13:50:04;4.00;;;0.70;;
3971;SDS011;2000;47.572;14.202;2023-03-16T13:52:31;1.80;;;0.93;;
3971;SDS011;2000;47.572;14.202;2023-03-16T13:55:00;4.43;;;0.90;;
3971;SDS011;2000;47.572;14.202;2023-03-16T13:57:34;2.30;;;0.60;;
3971;SDS011;2000;47.572;14.202;2023-03-16T14:00:12;1.43;;;0.70;;
3971;SDS011;2000;47.572;14.202;2023-03-16T14:02:42;0.93;;;0.50;;
3971;SDS011;2000;47.572;14.202;2023-03-16T14:05:10;2.20;;;0.60;;
3971;SDS011;2000;47.572;14.202;2023-03-16T14:07:38;4.90;;;0.83;;
3971;SDS011;2000;47.572;14.202;2023-03-16T14:10:05;1.10;;;1.00;;
3971;SDS011;2000;47.572;14.202;2023-03-16T14:12:35;0.60;;;0.40;;
3971;SDS011;2000;47.572;14.202;2023-03-16T14:15:03;0.93;;;0.57;;
3971;SDS011;2000;47.572;14.202;2023-03-16T14:17:32;1.07;;;0.50;;
3971;SDS011;2000;47.572;14.202;2023-03-16T14:19:59;0.90;;;0.30;;
3971;SDS011;2000;47.572;14.202;2023-03-16T14:22:32;0.50;;;0.30;;
3971;SDS011;2000;47.572;14.202;2023-03-16T14:25:02;0.40;;;0.40;;
3971;SDS011;2000;47.572;14.202;2023-03-16T14:27:31;0.57;;;0.57;;
3971;SDS011;2000;47.572;14.202;2023-03-16T14:32:59;9.53;;;0.60;;
3971;SDS011;2000;47.572;14.202;2023-03-16T14:35:43;1.27;;;0.67;;
3971;SDS011;2000;47.572;14.202;2023-03-16T14:41:01;3.60;;;0.87;;
3971;SDS011;2000;47.572;14.202;2023-03-16T14:43:31;0.93;;;0.67;;
3971;SDS011;2000;47.572;14.202;2023-03-16T14:46:04;2.20;;;0.30;;
3971;SDS011;2000;47.572;14.202;2023-03-16T14:48:33;0.60;;;0.33;;
3971;SDS011;2000;47.572;14.202;2023-03-16T14:51:01;0.93;;;0.57;;
3971;SDS011;2000;47.572;14.202;2023-03-16T14:53:29;3.43;;;0.60;;
3971;SDS011;2000;47.572;14.202;2023-03-16T14:55:57;0.50;;;0.40;;
3971;SDS011;2000;47.572;14.202;2023-03-16T14:58:24;1.13;;;0.53;;
3971;SDS011;2000;47.572;14.202;2023-03-16T15:00:52;2.40;;;0.77;;
3971;SDS011;2000;47.572;14.202;2023-03-16T15:03:20;3.97;;;0.90;;
3971;SDS011;2000;47.572;14.202;2023-03-16T15:05:49;4.83;;;1.33;;
3971;SDS011;2000;47.572;14.202;2023-03-16T15:08:24;2.00;;;0.53;;
3971;SDS011;2000;47.572;14.202;2023-03-16T15:10:54;0.57;;;0.40;;
3971;SDS011;2000;47.572;14.202;2023-03-16T15:13:24;0.60;;;0.60;;
3971;SDS011;2000;47.572;14.202;2023-03-16T15:16:00;0.93;;;0.63;;
3971;SDS011;2000;47.572;14.202;2023-03-16T15:18:31;1.23;;;0.60;;
3971;SDS011;2000;47.572;14.202;2023-03-16T15:20:59;9.67;;;0.40;;
3971;SDS011;2000;47.572;14.202;2023-03-16T15:23:27;1.53;;;0.40;;
3971;SDS011;2000;47.572;14.202;2023-03-16T15:25:54;2.67;;;0.40;;
3971;SDS011;2000;47.572;14.202;2023-03-16T15:28:26;1.17;;;0.70;;
3971;SDS011;2000;47.572;14.202;2023-03-16T15:30:54;6.53;;;1.50;;
3971;SDS011;2000;47.572;14.202;2023-03-16T15:33:22;3.70;;;0.93;;
3971;SDS011;2000;47.572;14.202;2023-03-16T15:35:51;4.20;;;3.80;;
3971;SDS011;2000;47.572;14.202;2023-03-16T15:38:22;5.90;;;2.13;;
3971;SDS011;2000;47.572;14.202;2023-03-16T15:40:50;9.33;;;1.20;;
3971;SDS011;2000;47.572;14.202;2023-03-16T15:43:18;2.20;;;1.20;;
3971;SDS011;2000;47.572;14.202;2023-03-16T15:45:46;1.20;;;0.77;;
3971;SDS011;2000;47.572;14.202;2023-03-16T15:48:13;1.00;;;0.47;;
3971;SDS011;2000;47.572;14.202;2023-03-16T15:50:43;4.67;;;1.10;;
3971;SDS011;2000;47.572;14.202;2023-03-16T15:53:26;4.80;;;1.40;;
3971;SDS011;2000;47.572;14.202;2023-03-16T15:56:00;2.97;;;0.90;;
3971;SDS011;2000;47.572;14.202;2023-03-16T15:58:29;46.43;;;1.70;;
3971;SDS011;2000;47.572;14.202;2023-03-16T16:00:58;4.30;;;0.70;;
3971;SDS011;2000;47.572;14.202;2023-03-16T16:03:25;36.67;;;1.70;;
3971;SDS011;2000;47.572;14.202;2023-03-16T16:05:53;2.47;;;0.83;;
3971;SDS011;2000;47.572;14.202;2023-03-16T16:08:20;2.67;;;0.80;;
3971;SDS011;2000;47.572;14.202;2023-03-16T16:10:47;2.30;;;0.60;;
3971;SDS011;2000;47.572;14.202;2023-03-16T16:15:44;1.13;;;0.50;;
3971;SDS011;2000;47.572;14.202;2023-03-16T16:18:21;9.30;;;1.17;;
3971;SDS011;2000;47.572;14.202;2023-03-16T16:20:52;2.63;;;0.73;;
3971;SDS011;2000;47.572;14.202;2023-03-16T16:23:20;1.90;;;0.83;;
3971;SDS011;2000;47.572;14.202;2023-03-16T16:25:46;5.03;;;0.80;;
3971;SDS011;2000;47.572;14.202;2023-03-16T16:28:15;1.37;;;0.47;;
3971;SDS011;2000;47.572;14.202;2023-03-16T16:30:44;10.30;;;1.50;;
3971;SDS011;2000;47.572;14.202;2023-03-16T16:35:57;1.90;;;0.40;;
3971;SDS011;2000;47.572;14.202;2023-03-16T16:38:25;0.50;;;0.30;;
3971;SDS011;2000;47.572;14.202;2023-03-16T16:40:52;5.30;;;0.80;;
3971;SDS011;2000;47.572;14.202;2023-03-16T16:46:03;1.27;;;0.70;;
3971;SDS011;2000;47.572;14.202;2023-03-16T16:48:33;1.03;;;0.50;;
3971;SDS011;2000;47.572;14.202;2023-03-16T16:51:02;1.50;;;0.50;;
3971;SDS011;2000;47.572;14.202;2023-03-16T16:53:32;4.63;;;0.63;;